Time;durP1;ratioP1;P1;durP2;ratioP2;P2;SDS_P1;SDS_P2;PMS_P1;PMS_P2;Temp;Humidity;BMP_temperature;BMP_pressure;BME280_temperature;BME280_humidity;BME280_pressure;Samples;Min_cycle;Max_cycle;Signal;HPM_P1;HPM_P2
2023/12/22 21:51:40;;;;;;;13.70;5.50;;;;;;;-8.86;100.00;140131.89;103429;1304;545057;-64
2023/12/22 21:54:26;;;;;;;17.20;6.80;;;;;;;-8.87;100.00;140129.19;105850;1288;22554;-65
2023/12/22 21:57:13;;;;;;;18.20;6.30;;;;;;;-8.87;100.00;140130.17;105874;1288;22551;-65
2023/12/22 22:00:00;;;;;;;17.70;6.00;;;;;;;-8.88;100.00;140126.97;105875;1288;25330;-64
2023/12/22 22:02:46;;;;;;;13.30;4.40;;;;;;;-8.92;100.00;140116.61;106195;1279;24296;-65
2023/12/22 22:05:33;;;;;;;16.00;6.60;;;;;;;-9.00;100.00;140097.61;106259;1282;143327;-65
2023/12/22 22:08:20;;;;;;;13.50;5.70;;;;;;;-9.03;100.00;140090.72;106384;1282;25359;-64
2023/12/22 22:11:06;;;;;;;15.80;5.30;;;;;;;-9.04;100.00;140089.73;106240;1269;24253;-66
2023/12/22 22:13:53;;;;;;;15.00;5.50;;;;;;;-9.05;100.00;140085.80;106458;1283;24275;-62
2023/12/22 22:16:40;;;;;;;17.00;6.00;;;;;;;-9.08;100.00;140077.67;106742;1273;22529;-65
2023/12/22 22:19:27;;;;;;;15.80;6.60;;;;;;;-9.13;100.00;140067.30;106946;1267;24253;-66
2023/12/22 22:22:14;;;;;;;17.90;5.50;;;;;;;-9.17;100.00;140058.45;107091;1275;22820;-64
2023/12/22 22:25:00;;;;;;;15.60;5.50;;;;;;;-9.17;100.00;140056.47;107075;1273;22667;-64
2023/12/22 22:27:47;;;;;;;13.10;5.20;;;;;;;-9.16;100.00;140060.16;107004;1267;23433;-64
2023/12/22 22:30:35;;;;;;;20.10;5.70;;;;;;;-9.13;100.00;140065.84;107062;1274;22533;-65
2023/12/22 22:33:21;;;;;;;14.90;6.10;;;;;;;-9.11;100.00;140070.27;110524;1268;22343;-63
2023/12/22 22:36:08;;;;;;;12.10;5.20;;;;;;;-9.12;100.00;140069.28;110533;1270;22888;-65
2023/12/22 22:38:54;;;;;;;20.50;5.50;;;;;;;-9.12;100.00;140068.80;110497;1273;22222;-64
2023/12/22 22:41:43;;;;;;;18.20;4.80;;;;;;;-9.09;100.00;140075.92;110515;1268;22220;-64
2023/12/22 22:44:29;;;;;;;12.50;5.30;;;;;;;-9.05;100.00;140086.53;110535;1267;22567;-63
2023/12/22 22:47:16;;;;;;;17.50;5.70;;;;;;;-9.03;100.00;140092.22;110498;1275;22336;-64
2023/12/22 22:50:02;;;;;;;14.10;5.00;;;;;;;-9.02;100.00;140094.17;110479;1270;22147;-63
2023/12/22 22:52:48;;;;;;;16.00;5.80;;;;;;;-9.02;100.00;140092.94;110499;1270;22107;-63
2023/12/22 22:55:35;;;;;;;12.00;4.40;;;;;;;-9.06;100.00;140084.83;110550;1267;22349;-64
2023/12/22 22:58:22;;;;;;;17.20;5.00;;;;;;;-9.07;100.00;140080.88;110617;1266;22333;-64
2023/12/22 23:01:10;;;;;;;12.90;4.90;;;;;;;-9.08;100.00;140079.66;110539;1267;22354;-64
2023/12/22 23:03:56;;;;;;;12.50;5.50;;;;;;;-9.07;100.00;140081.86;110460;1270;22130;-63
2023/12/22 23:06:47;;;;;;;15.90;5.10;;;;;;;-9.07;100.00;140081.13;110487;1274;22316;-64
2023/12/22 23:09:33;;;;;;;15.50;5.70;;;;;;;-9.08;100.00;140078.39;110517;1273;22137;-63
2023/12/22 23:12:20;;;;;;;12.10;5.70;;;;;;;-9.10;100.00;140074.95;110577;1267;22358;-63
2023/12/22 23:15:07;;;;;;;19.00;6.30;;;;;;;-9.10;100.00;140074.47;110553;1272;22318;-64
2023/12/22 23:17:53;;;;;;;19.60;5.30;;;;;;;-9.09;100.00;140076.42;110527;1273;22162;-64
2023/12/22 23:20:40;;;;;;;19.00;6.70;;;;;;;-9.07;100.00;140080.63;110465;1274;22134;-66
2023/12/22 23:23:27;;;;;;;14.00;5.30;;;;;;;-9.06;100.00;140085.06;110541;1275;22362;-64
2023/12/22 23:26:13;;;;;;;14.70;4.90;;;;;;;-9.05;100.00;140087.03;110475;1274;22140;-63
2023/12/22 23:29:00;;;;;;;20.90;5.60;;;;;;;-9.04;100.00;140088.00;110543;1274;22991;-62
2023/12/22 23:31:46;;;;;;;14.20;5.10;;;;;;;-9.05;100.00;140087.28;110588;1268;22201;-63
2023/12/22 23:34:33;;;;;;;13.90;4.30;;;;;;;-9.06;100.00;140082.59;110533;1273;22166;-62
2023/12/22 23:37:19;;;;;;;12.20;4.80;;;;;;;-9.07;100.00;140080.88;110521;1274;22206;-63
2023/12/22 23:40:06;;;;;;;10.60;4.00;;;;;;;-9.06;100.00;140084.08;110505;1273;22227;-63
2023/12/22 23:42:52;;;;;;;13.10;4.50;;;;;;;-9.02;100.00;140092.72;110511;1274;22182;-61
2023/12/22 23:45:38;;;;;;;17.30;5.40;;;;;;;-9.02;100.00;140093.20;110461;1275;22147;-62
2023/12/22 23:48:25;;;;;;;12.40;4.30;;;;;;;-9.03;100.00;140092.47;110576;1273;22858;-62
2023/12/22 23:51:14;;;;;;;18.90;4.10;;;;;;;-9.03;100.00;140090.72;110463;1274;22927;-63
2023/12/22 23:54:01;;;;;;;15.00;5.40;;;;;;;-9.03;100.00;140090.72;110539;1273;22207;-61
2023/12/22 23:56:47;;;;;;;15.20;5.50;;;;;;;-9.04;100.00;140088.77;110518;1274;22183;-63
2023/12/22 23:59:33;;;;;;;11.30;4.10;;;;;;;-9.03;100.00;140090.98;110522;1274;23047;-63
